createdAt,value
2023-04-06T00:01:24.001Z,49.93
2023-04-06T00:03:51.261Z,48.47
2023-04-06T00:06:17.663Z,49.14
2023-04-06T00:08:45.503Z,50.10
2023-04-06T00:11:11.879Z,50.51
2023-04-06T00:13:38.336Z,51.42
2023-04-06T00:16:06.276Z,51.93
2023-04-06T00:18:32.865Z,52.03
2023-04-06T00:20:59.227Z,52.85
2023-04-06T00:23:25.703Z,50.39
2023-04-06T00:25:52.056Z,50.63
2023-04-06T00:28:18.485Z,50.29
2023-04-06T00:30:44.904Z,51.67
2023-04-06T00:33:11.537Z,51.05
2023-04-06T00:35:38.074Z,51.12
2023-04-06T00:38:04.542Z,50.73
2023-04-06T00:40:31.988Z,51.67
2023-04-06T00:42:58.367Z,52.18
2023-04-06T00:45:24.744Z,51.26
2023-04-06T00:47:51.558Z,50.77
2023-04-06T00:50:18.254Z,52.14
2023-04-06T00:52:44.625Z,51.78
2023-04-06T00:55:11.139Z,50.59
2023-04-06T00:57:41.535Z,50.90
2023-04-06T01:00:08.101Z,51.41
2023-04-06T01:02:35.393Z,51.49
2023-04-06T01:05:01.840Z,51.78
2023-04-06T01:07:36.154Z,51.99
2023-04-06T01:10:10.363Z,52.23
2023-04-06T01:12:39.636Z,51.34
2023-04-06T01:15:12.018Z,51.75
2023-04-06T01:17:41.577Z,52.54
2023-04-06T01:20:12.770Z,51.68
2023-04-06T01:22:39.182Z,51.27
2023-04-06T01:25:05.964Z,52.14
2023-04-06T01:28:04.710Z,51.85
2023-04-06T01:30:47.605Z,51.36
2023-04-06T01:33:26.006Z,52.07
2023-04-06T01:36:01.227Z,51.12
2023-04-06T01:38:27.755Z,50.82
2023-04-06T01:40:54.554Z,50.90
2023-04-06T01:43:23.773Z,51.56
2023-04-06T01:46:00.282Z,52.66
2023-04-06T01:48:32.171Z,51.86
2023-04-06T01:51:02.747Z,51.55
2023-04-06T01:53:32.643Z,51.81
2023-04-06T01:56:04.354Z,51.93
2023-04-06T01:58:34.531Z,51.47
2023-04-06T02:01:01.333Z,52.05
2023-04-06T02:03:32.524Z,52.48
2023-04-06T02:06:05.965Z,51.04
2023-04-06T02:08:37.199Z,52.21
2023-04-06T02:11:03.599Z,52.21
2023-04-06T02:13:34.635Z,52.17
2023-04-06T02:16:02.458Z,51.69
2023-04-06T02:18:30.671Z,51.34
2023-04-06T02:20:57.361Z,51.72
2023-04-06T02:23:23.734Z,50.94
2023-04-06T02:25:50.314Z,51.21
2023-04-06T02:28:16.681Z,50.30
2023-04-06T02:30:43.062Z,50.69
2023-04-06T02:33:09.781Z,50.40
2023-04-06T02:35:42.415Z,50.64
2023-04-06T02:38:08.789Z,50.99
2023-04-06T02:40:35.270Z,51.46
2023-04-06T02:43:11.681Z,51.42
2023-04-06T02:45:38.245Z,52.68
2023-04-06T02:48:05.111Z,52.05
2023-04-06T02:50:32.611Z,51.98
2023-04-06T02:53:02.759Z,51.50
2023-04-06T02:55:29.278Z,51.82
2023-04-06T02:57:55.713Z,52.53
2023-04-06T03:00:27.278Z,53.35
2023-04-06T03:02:53.820Z,52.39
2023-04-06T03:05:20.579Z,52.39
2023-04-06T03:07:47.606Z,51.79
2023-04-06T03:10:21.797Z,51.82
2023-04-06T03:12:49.143Z,51.96
2023-04-06T03:15:34.399Z,52.47
2023-04-06T03:18:11.699Z,52.99
2023-04-06T03:20:42.915Z,51.49
2023-04-06T03:23:10.255Z,52.68
2023-04-06T03:25:40.808Z,53.54
2023-04-06T03:28:09.798Z,53.99
2023-04-06T03:30:43.588Z,53.60
2023-04-06T03:33:11.647Z,53.05
2023-04-06T03:35:47.699Z,54.72
2023-04-06T03:38:14.440Z,54.02
2023-04-06T03:40:40.975Z,54.38
2023-04-06T03:43:08.506Z,53.32
2023-04-06T03:45:36.637Z,53.24
2023-04-06T03:48:03.713Z,54.56
2023-04-06T03:50:32.895Z,54.32
2023-04-06T03:52:59.367Z,54.11
2023-04-06T03:55:25.821Z,53.57
2023-04-06T03:57:52.219Z,52.72
2023-04-06T04:00:18.698Z,52.82
2023-04-06T04:02:45.172Z,52.71
2023-04-06T04:05:11.604Z,53.96
2023-04-06T04:07:38.012Z,53.67
2023-04-06T04:10:05.661Z,53.18
2023-04-06T04:12:32.417Z,53.13
2023-04-06T04:14:59.137Z,53.59
2023-04-06T04:17:26.002Z,53.28
2023-04-06T04:19:52.438Z,52.49
2023-04-06T04:22:18.827Z,52.50
2023-04-06T04:24:45.421Z,53.46
2023-04-06T04:27:11.867Z,53.17
2023-04-06T04:29:39.956Z,52.66
2023-04-06T04:32:09.176Z,53.53
2023-04-06T04:34:36.805Z,53.26
2023-04-06T04:37:05.952Z,54.19
2023-04-06T04:39:43.896Z,54.74
2023-04-06T04:42:11.358Z,55.25
2023-04-06T04:44:43.217Z,53.80
2023-04-06T04:47:09.823Z,53.68
2023-04-06T04:49:43.848Z,53.49
2023-04-06T04:52:12.379Z,53.34
2023-04-06T04:54:50.496Z,53.77
2023-04-06T04:57:23.896Z,54.54
2023-04-06T04:59:51.801Z,54.90
2023-04-06T05:02:19.251Z,53.91
2023-04-06T05:04:54.286Z,53.18
2023-04-06T05:07:24.341Z,53.46
2023-04-06T05:09:52.940Z,53.96
2023-04-06T05:12:20.887Z,53.17
2023-04-06T05:14:55.914Z,53.38
2023-04-06T05:17:23.272Z,53.73
2023-04-06T05:19:50.308Z,54.25
2023-04-06T05:22:22.537Z,53.32
2023-04-06T05:24:57.590Z,53.23
2023-04-06T05:27:23.991Z,52.71
2023-04-06T05:29:51.092Z,52.28
2023-04-06T05:32:22.816Z,52.96
2023-04-06T05:34:53.532Z,51.77
2023-04-06T05:37:19.943Z,53.23
2023-04-06T05:39:46.665Z,53.17
2023-04-06T05:42:13.400Z,52.28
2023-04-06T05:44:50.109Z,52.18
2023-04-06T05:47:17.342Z,52.94
2023-04-06T05:49:47.229Z,52.51
2023-04-06T05:52:21.410Z,52.00
2023-04-06T05:54:49.891Z,51.63
2023-04-06T05:57:17.640Z,51.98
2023-04-06T05:59:44.373Z,51.65
2023-04-06T06:02:12.782Z,50.55
2023-04-06T06:04:43.270Z,51.19
2023-04-06T06:07:09.841Z,51.32
2023-04-06T06:09:44.299Z,50.80
2023-04-06T06:12:24.293Z,50.74
2023-04-06T06:14:50.945Z,50.43
2023-04-06T06:17:18.349Z,51.14
2023-04-06T06:19:47.065Z,50.98
2023-04-06T06:22:13.491Z,50.32
2023-04-06T06:24:42.886Z,52.09
2023-04-06T06:27:10.530Z,51.29
2023-04-06T06:29:38.260Z,51.16
2023-04-06T06:32:04.810Z,50.26
2023-04-06T06:34:31.919Z,50.94
2023-04-06T06:37:00.711Z,51.26
2023-04-06T06:39:27.240Z,51.35
2023-04-06T06:41:55.384Z,51.45
2023-04-06T06:44:39.528Z,51.79
2023-04-06T06:47:06.025Z,51.80
2023-04-06T06:49:32.456Z,52.05
2023-04-06T06:51:59.073Z,51.90
2023-04-06T06:54:25.659Z,52.12
2023-04-06T06:56:52.100Z,52.10
2023-04-06T06:59:18.699Z,51.66
2023-04-06T07:01:45.249Z,51.83
2023-04-06T07:04:11.840Z,50.98
2023-04-06T07:06:38.375Z,49.07
2023-04-06T07:09:06.681Z,48.68
2023-04-06T07:11:33.124Z,49.44
2023-04-06T07:13:59.520Z,48.87
2023-04-06T07:16:26.362Z,48.48
2023-04-06T07:18:54.240Z,48.17
2023-04-06T07:21:20.647Z,48.82
2023-04-06T07:23:49.013Z,48.15
2023-04-06T07:26:16.461Z,46.76
2023-04-06T07:28:42.856Z,46.79
2023-04-06T07:31:10.177Z,46.43
2023-04-06T07:33:36.669Z,46.66
2023-04-06T07:36:03.127Z,45.25
2023-04-06T07:38:29.792Z,44.71
2023-04-06T07:40:56.506Z,45.07
2023-04-06T07:43:23.274Z,47.46
2023-04-06T07:45:50.077Z,45.03
2023-04-06T07:48:17.594Z,44.55
2023-04-06T07:50:44.606Z,44.42
2023-04-06T07:53:11.390Z,44.74
2023-04-06T07:55:38.618Z,44.10
2023-04-06T07:58:05.050Z,44.94
2023-04-06T08:00:31.414Z,44.10
2023-04-06T08:02:57.992Z,43.79
2023-04-06T08:05:24.441Z,43.96
2023-04-06T08:07:50.920Z,45.04
2023-04-06T08:10:17.845Z,45.16
2023-04-06T08:12:44.402Z,44.64
2023-04-06T08:15:11.110Z,43.13
2023-04-06T08:17:37.557Z,43.87
2023-04-06T08:20:04.716Z,43.28
2023-04-06T08:22:31.261Z,42.92
2023-04-06T08:24:57.710Z,42.83
2023-04-06T08:27:24.157Z,41.24
2023-04-06T08:29:50.777Z,41.57
2023-04-06T08:32:17.341Z,42.17
2023-04-06T08:34:45.486Z,42.26
2023-04-06T08:37:11.869Z,41.26
2023-04-06T08:39:38.270Z,40.98
2023-04-06T08:42:04.879Z,43.22
2023-04-06T08:44:32.923Z,43.18
2023-04-06T08:47:00.324Z,40.95
2023-04-06T08:49:27.015Z,42.04
2023-04-06T08:51:54.000Z,41.76
2023-04-06T08:54:20.391Z,40.77
2023-04-06T08:56:46.761Z,39.36
2023-04-06T08:59:13.169Z,39.46
2023-04-06T09:01:41.098Z,38.54
2023-04-06T09:04:10.492Z,38.36
2023-04-06T09:06:37.929Z,38.69
2023-04-06T09:09:04.501Z,37.91
2023-04-06T09:11:41.731Z,37.82
2023-04-06T09:14:08.460Z,39.16
2023-04-06T09:16:40.269Z,39.91
2023-04-06T09:19:06.832Z,38.04
2023-04-06T09:21:33.441Z,37.80
2023-04-06T09:24:03.202Z,33.50
2023-04-06T09:26:29.874Z,33.59
2023-04-06T09:28:57.153Z,32.91
2023-04-06T09:31:24.603Z,34.81
2023-04-06T09:33:51.507Z,35.13
2023-04-06T09:36:17.885Z,36.11
2023-04-06T09:38:55.248Z,35.54
2023-04-06T09:41:26.493Z,36.26
2023-04-06T09:43:53.534Z,37.79
2023-04-06T09:46:21.125Z,36.96
2023-04-06T09:48:47.563Z,35.75
2023-04-06T09:51:14.567Z,33.93
2023-04-06T09:53:43.383Z,33.44
2023-04-06T09:56:13.319Z,32.91
2023-04-06T09:58:40.368Z,33.34
2023-04-06T10:01:08.649Z,31.07
2023-04-06T10:03:41.796Z,34.19
2023-04-06T10:06:10.951Z,34.37
2023-04-06T10:08:37.355Z,33.22
2023-04-06T10:11:03.746Z,31.85
2023-04-06T10:13:30.501Z,33.78
2023-04-06T10:15:57.151Z,34.60
2023-04-06T10:18:23.832Z,32.73
2023-04-06T10:20:53.076Z,32.87
2023-04-06T10:23:21.030Z,32.17
2023-04-06T10:25:54.495Z,32.27
2023-04-06T10:28:20.952Z,31.65
2023-04-06T10:30:47.696Z,30.46
2023-04-06T10:33:14.685Z,28.58
2023-04-06T10:35:41.163Z,28.69
2023-04-06T10:38:08.581Z,29.06
2023-04-06T10:40:39.106Z,31.96
2023-04-06T10:43:12.632Z,31.20
2023-04-06T10:45:39.156Z,31.25
2023-04-06T10:48:15.968Z,30.78
2023-04-06T10:50:43.067Z,32.24
2023-04-06T10:53:09.462Z,31.43
2023-04-06T10:55:35.881Z,30.14
2023-04-06T10:58:02.290Z,31.45
2023-04-06T11:00:36.278Z,30.92
2023-04-06T11:03:13.710Z,30.78
2023-04-06T11:05:44.995Z,28.89
2023-04-06T11:08:32.290Z,29.74
2023-04-06T11:11:11.626Z,29.26
2023-04-06T11:13:41.853Z,29.43
2023-04-06T11:16:08.387Z,28.57
2023-04-06T11:18:34.931Z,28.64
2023-04-06T11:27:35.193Z,25.36
2023-04-06T11:30:02.061Z,25.93
2023-04-06T11:32:28.601Z,25.00
2023-04-06T11:34:55.091Z,23.48
2023-04-06T11:37:21.523Z,25.76
2023-04-06T11:39:50.375Z,28.18
2023-04-06T11:42:23.669Z,28.62
2023-04-06T11:44:51.097Z,27.98
2023-04-06T11:47:17.478Z,27.42
2023-04-06T11:49:45.946Z,25.87
2023-04-06T11:52:19.216Z,26.46
2023-04-06T11:54:46.047Z,27.33
2023-04-06T11:57:12.423Z,27.66
2023-04-06T11:59:38.915Z,25.86
2023-04-06T12:02:05.762Z,26.66
2023-04-06T12:04:32.234Z,25.83
2023-04-06T12:06:58.684Z,26.68
2023-04-06T12:09:25.196Z,26.11
2023-04-06T12:11:51.700Z,22.91
2023-04-06T12:14:18.126Z,24.44
2023-04-06T12:16:44.997Z,24.02
2023-04-06T12:19:11.424Z,25.09
2023-04-06T12:21:41.439Z,24.06
2023-04-06T12:24:07.820Z,25.37
2023-04-06T12:26:34.260Z,26.31
2023-04-06T12:29:07.840Z,25.17
2023-04-06T12:31:35.918Z,26.17
2023-04-06T12:34:04.083Z,26.71
2023-04-06T12:36:30.689Z,26.30
2023-04-06T12:38:57.084Z,27.56
2023-04-06T12:41:23.739Z,26.01
2023-04-06T12:43:51.114Z,28.59
2023-04-06T12:46:18.012Z,26.12
2023-04-06T12:48:44.537Z,25.92
2023-04-06T12:51:11.069Z,25.62
2023-04-06T12:53:37.460Z,25.90
2023-04-06T12:56:06.709Z,23.05
2023-04-06T12:58:34.430Z,27.29
2023-04-06T13:01:04.075Z,27.38
2023-04-06T13:03:31.566Z,25.59
2023-04-06T13:05:57.917Z,25.94
2023-04-06T13:08:24.265Z,24.92
2023-04-06T13:10:51.777Z,24.22
2023-04-06T13:13:18.506Z,24.71
2023-04-06T13:15:45.937Z,25.40
2023-04-06T13:18:12.497Z,24.26
2023-04-06T13:20:38.891Z,26.81
2023-04-06T13:23:05.494Z,26.79
2023-04-06T13:25:33.592Z,26.02
2023-04-06T13:28:00.063Z,26.33
2023-04-06T13:30:27.207Z,26.05
2023-04-06T13:32:54.367Z,25.80
2023-04-06T13:35:21.373Z,24.66
2023-04-06T13:37:47.851Z,25.75
2023-04-06T13:40:14.507Z,25.23
2023-04-06T13:42:41.781Z,24.90
2023-04-06T13:45:08.941Z,29.07
2023-04-06T13:47:35.880Z,25.68
2023-04-06T13:50:02.477Z,26.17
2023-04-06T13:52:29.050Z,26.61
2023-04-06T13:54:55.511Z,28.17
2023-04-06T13:57:21.965Z,24.32
2023-04-06T13:59:50.551Z,24.75
2023-04-06T14:02:17.356Z,27.78
2023-04-06T14:04:43.911Z,24.72
2023-04-06T14:07:10.556Z,26.98
2023-04-06T14:09:37.083Z,24.95
2023-04-06T14:12:03.495Z,24.03
2023-04-06T14:14:30.253Z,23.83
2023-04-06T14:16:57.047Z,24.98
2023-04-06T14:19:23.492Z,25.01
2023-04-06T14:21:50.463Z,24.14
2023-04-06T14:24:17.239Z,24.79
2023-04-06T14:26:43.763Z,26.87
2023-04-06T14:29:10.672Z,22.20
2023-04-06T14:31:37.106Z,24.49
2023-04-06T14:34:04.062Z,23.72
2023-04-06T14:36:37.483Z,23.47
2023-04-06T14:39:05.711Z,24.73
2023-04-06T14:41:33.330Z,22.46
2023-04-06T14:43:59.733Z,27.54
2023-04-06T14:46:27.712Z,23.21
2023-04-06T14:48:57.646Z,25.69
2023-04-06T14:51:30.308Z,24.33
2023-04-06T14:53:56.845Z,21.31
2023-04-06T14:56:23.900Z,24.85
2023-04-06T14:58:51.794Z,23.55
2023-04-06T15:01:19.290Z,27.77
2023-04-06T15:03:46.240Z,23.91
2023-04-06T15:06:15.805Z,24.82
2023-04-06T15:08:42.854Z,23.73
2023-04-06T15:11:09.446Z,23.83
2023-04-06T15:13:35.824Z,23.92
2023-04-06T15:16:02.277Z,25.96
2023-04-06T15:18:28.809Z,26.27
2023-04-06T15:20:55.429Z,24.39
2023-04-06T15:23:21.807Z,24.80
2023-04-06T15:25:48.193Z,23.84
2023-04-06T15:28:14.650Z,25.85
2023-04-06T15:30:41.143Z,24.54
2023-04-06T15:33:07.870Z,26.20
2023-04-06T15:35:43.616Z,24.15
2023-04-06T15:38:10.629Z,24.84
2023-04-06T15:40:44.282Z,24.87
2023-04-06T15:43:10.688Z,24.79
2023-04-06T15:45:37.581Z,24.91
2023-04-06T15:48:05.354Z,23.97
2023-04-06T15:50:33.227Z,23.66
2023-04-06T15:52:59.615Z,24.58
2023-04-06T15:55:25.976Z,23.53
2023-04-06T15:57:52.387Z,23.46
2023-04-06T16:00:18.935Z,25.89
2023-04-06T16:02:45.555Z,26.62
2023-04-06T16:05:12.070Z,25.51
2023-04-06T16:07:38.453Z,26.12
2023-04-06T16:10:06.152Z,25.34
2023-04-06T16:12:35.646Z,25.35
2023-04-06T16:15:02.086Z,24.22
2023-04-06T16:17:28.536Z,25.97
2023-04-06T16:19:55.034Z,24.91
2023-04-06T16:22:21.639Z,24.75
2023-04-06T16:24:48.020Z,26.47
2023-04-06T16:27:14.388Z,27.02
2023-04-06T16:29:40.778Z,26.09
2023-04-06T16:32:07.578Z,27.88
2023-04-06T16:34:34.398Z,27.39
2023-04-06T16:37:01.666Z,27.61
2023-04-06T16:39:28.433Z,28.43
2023-04-06T16:41:54.803Z,28.48
2023-04-06T16:44:21.601Z,27.99
2023-04-06T16:46:48.178Z,28.27
2023-04-06T16:49:14.564Z,27.98
2023-04-06T16:51:41.419Z,27.95
2023-04-06T16:54:08.774Z,28.06
2023-04-06T16:56:35.181Z,28.96
2023-04-06T16:59:01.558Z,30.22
2023-04-06T17:01:28.688Z,29.25
2023-04-06T17:03:56.188Z,28.83
2023-04-06T17:06:22.703Z,29.88
2023-04-06T17:08:49.342Z,29.55
2023-04-06T17:11:18.706Z,29.89
2023-04-06T17:13:48.530Z,28.66
2023-04-06T17:16:15.086Z,29.39
2023-04-06T17:18:41.589Z,30.45
2023-04-06T17:21:09.057Z,30.73
2023-04-06T17:23:35.690Z,30.50
2023-04-06T17:26:05.739Z,32.07
2023-04-06T17:28:33.948Z,32.41
2023-04-06T17:31:00.371Z,32.99
2023-04-06T17:33:27.398Z,32.59
2023-04-06T17:35:54.020Z,31.93
2023-04-06T17:38:21.071Z,31.83
2023-04-06T17:40:47.465Z,30.97
2023-04-06T17:43:13.882Z,30.76
2023-04-06T17:45:40.718Z,29.26
2023-04-06T17:48:07.486Z,30.41
2023-04-06T17:50:34.616Z,30.38
2023-04-06T17:53:01.365Z,30.10
2023-04-06T17:55:27.824Z,30.86
2023-04-06T17:57:54.245Z,30.39
2023-04-06T18:00:24.217Z,29.62
2023-04-06T18:02:54.335Z,29.69
2023-04-06T18:05:21.240Z,30.13
2023-04-06T18:07:48.102Z,30.46
2023-04-06T18:10:14.485Z,29.74
2023-04-06T18:12:40.943Z,29.83
2023-04-06T18:15:07.437Z,29.73
2023-04-06T18:17:34.217Z,29.62
2023-04-06T18:20:00.762Z,29.80
2023-04-06T18:22:27.598Z,29.86
2023-04-06T18:24:53.961Z,30.99
2023-04-06T18:27:21.533Z,31.73
2023-04-06T18:29:48.008Z,32.41
2023-04-06T18:32:14.955Z,30.78
2023-04-06T18:34:41.398Z,31.90
2023-04-06T18:37:07.893Z,32.32
2023-04-06T18:39:34.317Z,32.84
2023-04-06T18:42:00.918Z,32.60
2023-04-06T18:44:27.409Z,34.21
2023-04-06T18:46:55.485Z,33.19
2023-04-06T18:49:22.399Z,33.08
2023-04-06T18:51:48.801Z,34.21
2023-04-06T18:54:15.528Z,33.45
2023-04-06T18:56:41.986Z,34.38
2023-04-06T18:59:09.120Z,33.95
2023-04-06T19:01:35.637Z,33.77
2023-04-06T19:04:02.632Z,34.64
2023-04-06T19:06:29.210Z,34.94
2023-04-06T19:08:56.235Z,34.77
2023-04-06T19:11:24.981Z,36.21
2023-04-06T19:13:52.853Z,34.45
2023-04-06T19:16:19.323Z,34.91
2023-04-06T19:18:45.856Z,34.05
2023-04-06T19:21:18.701Z,33.54
2023-04-06T19:23:45.422Z,34.86
2023-04-06T19:26:12.357Z,34.99
2023-04-06T19:28:38.936Z,35.29
2023-04-06T19:31:08.788Z,34.76
2023-04-06T19:33:35.978Z,34.94
2023-04-06T19:36:02.499Z,35.39
2023-04-06T19:38:29.095Z,36.53
2023-04-06T19:40:56.559Z,37.74
2023-04-06T19:43:23.052Z,37.05
2023-04-06T19:45:49.595Z,36.79
2023-04-06T19:48:16.570Z,37.20
2023-04-06T19:50:43.006Z,35.79
2023-04-06T19:53:09.457Z,35.75
2023-04-06T19:55:36.964Z,35.66
2023-04-06T19:58:03.827Z,35.27
2023-04-06T20:00:30.271Z,35.31
2023-04-06T20:02:56.942Z,36.69
2023-04-06T20:05:23.402Z,36.21
2023-04-06T20:07:50.097Z,34.49
2023-04-06T20:10:16.956Z,33.23
2023-04-06T20:12:43.788Z,34.89
2023-04-06T20:15:10.809Z,33.87
2023-04-06T20:17:37.328Z,34.00
2023-04-06T20:20:04.532Z,33.48
2023-04-06T20:22:31.162Z,35.08
2023-04-06T20:24:57.553Z,34.90
2023-04-06T20:27:23.956Z,36.26
2023-04-06T20:29:50.393Z,36.28
2023-04-06T20:32:20.653Z,37.63
2023-04-06T20:34:47.798Z,37.91
2023-04-06T20:37:14.369Z,38.37
2023-04-06T20:39:41.027Z,37.90
2023-04-06T20:42:08.468Z,37.38
2023-04-06T20:44:35.845Z,37.92
2023-04-06T20:47:03.625Z,38.20
2023-04-06T20:49:30.059Z,37.89
2023-04-06T20:51:56.502Z,40.06
2023-04-06T20:54:23.001Z,38.81
2023-04-06T20:56:49.471Z,39.89
2023-04-06T20:59:15.931Z,39.29
2023-04-06T21:01:42.984Z,41.51
2023-04-06T21:04:09.636Z,41.64
2023-04-06T21:06:36.215Z,42.04
2023-04-06T21:09:02.704Z,42.75
2023-04-06T21:11:29.635Z,42.82
2023-04-06T21:13:56.424Z,43.35
2023-04-06T21:16:23.123Z,43.49
2023-04-06T21:18:49.593Z,44.51
2023-04-06T21:21:15.978Z,43.97
2023-04-06T21:23:42.377Z,44.48
2023-04-06T21:26:08.816Z,43.93
2023-04-06T21:28:35.394Z,44.43
2023-04-06T21:31:01.783Z,44.71
2023-04-06T21:33:28.291Z,44.37
2023-04-06T21:35:54.675Z,43.96
2023-04-06T21:38:21.184Z,44.99
2023-04-06T21:40:53.869Z,44.92
2023-04-06T21:43:20.256Z,43.90
2023-04-06T21:45:50.883Z,45.15
2023-04-06T21:48:17.457Z,48.43
2023-04-06T21:50:43.958Z,50.59
2023-04-06T21:53:10.580Z,51.04
2023-04-06T21:55:41.843Z,52.28
2023-04-06T21:58:09.065Z,52.63
2023-04-06T22:00:35.553Z,53.72
2023-04-06T22:03:02.181Z,52.67
2023-04-06T22:05:28.736Z,51.34
2023-04-06T22:07:57.093Z,52.53
2023-04-06T22:10:23.715Z,53.94
2023-04-06T22:12:50.668Z,53.48
2023-04-06T22:15:17.386Z,55.94
2023-04-06T22:17:43.801Z,56.49
2023-04-06T22:20:10.455Z,57.06
2023-04-06T22:22:36.866Z,57.13
2023-04-06T22:25:03.528Z,56.45
2023-04-06T22:27:29.899Z,57.63
2023-04-06T22:29:56.527Z,58.54
2023-04-06T22:32:23.041Z,55.63
2023-04-06T22:34:49.560Z,57.03
2023-04-06T22:37:15.966Z,55.91
2023-04-06T22:39:42.432Z,57.84
2023-04-06T22:42:09.067Z,59.72
2023-04-06T22:44:35.499Z,59.71
2023-04-06T22:47:02.219Z,60.16
2023-04-06T22:49:28.645Z,59.69
2023-04-06T22:51:55.153Z,59.70
2023-04-06T22:54:21.788Z,60.09
2023-04-06T22:56:48.368Z,60.29
2023-04-06T22:59:14.756Z,61.67
2023-04-06T23:01:41.449Z,59.26
2023-04-06T23:04:08.047Z,59.32
2023-04-06T23:06:34.588Z,59.30
2023-04-06T23:09:01.246Z,61.63
2023-04-06T23:11:27.643Z,60.95
2023-04-06T23:13:54.029Z,60.99
2023-04-06T23:16:20.733Z,61.15
2023-04-06T23:18:47.155Z,60.94
2023-04-06T23:21:13.513Z,60.39
2023-04-06T23:23:39.963Z,61.07
2023-04-06T23:26:07.158Z,61.07
2023-04-06T23:28:33.555Z,61.37
2023-04-06T23:30:59.926Z,61.96
2023-04-06T23:33:26.985Z,62.31
2023-04-06T23:35:53.345Z,60.39
2023-04-06T23:38:19.733Z,59.70
2023-04-06T23:40:46.457Z,59.86
2023-04-06T23:43:12.900Z,59.87
2023-04-06T23:45:39.891Z,59.90
2023-04-06T23:48:06.559Z,59.62
2023-04-06T23:50:34.687Z,59.42
2023-04-06T23:53:01.862Z,59.76
2023-04-06T23:55:28.228Z,60.29
2023-04-06T23:57:55.554Z,59.76
